<?xml version="1.0" encoding="UTF-8" standalone="no" ?>
<gpx xmlns="http://www.topografix.com/GPX/1/1" xmlns:xsi="http://www.w3.org/2001/XMLSchema-instance" xsi:schemaLocation="http://www.topografix.com/GPX/1/1 http://www.topografix.com/GPX/1/1/gpx.xsd" version="1.1" creator="VisuGPX - https://www.visugpx.com">
  <metadata>
    <name>Pic de chepaou</name>
    <desc><![CDATA[On sais pas trop ou c'etait, mais c'etait bien]]></desc>
  </metadata>
  <trk>
    <name><![CDATA[2017-12-03 09:19]]></name>
    <desc><![CDATA[<p>Heure de départ: 12/03/2017 09:19<br/>Heure d'arrivée: 12/03/2017 16:06<br/>Distance: 10,7 km (06:47)<br/>Temps déplacement: 03:58<br/>Vitesse moyenne: 1,57 km/h<br/>Vitesse moyenne mouv.: 2,69 km/h<br/>Vitesse Max.: 8,65 km/h<br/>Altitude minimale: 668 m<br/>Altitude maximale: 1694 m<br/>Vitesse de montée: 217,2 m/h<br/>Vitesse de descente: -486,3 m/h<br/>Gain d'altitude: 1021 m<br/>Perte d'altitude: -1015 m<br/>Temps de montée: 04:42<br/>Temps de descente: 02:05<br/></p><hr align="center" width="480" style="height: 2px; width: 517px"/>]]></desc>
    <trkseg>
      <trkpt lat="42.73414" lon="1.79107">
        <ele>668.2</ele>
        <time>2017-12-03T08:19:24Z</time>
      </trkpt>
      <trkpt lat="42.73397" lon="1.79116">
        <ele>674.82</ele>
        <time>2017-12-03T08:19:40Z</time>
      </trkpt>
      <trkpt lat="42.73394" lon="1.79092">
        <ele>669.38</ele>
        <time>2017-12-03T08:20:10Z</time>
      </trkpt>
      <trkpt lat="42.73413" lon="1.79084">
        <ele>669.27</ele>
        <time>2017-12-03T08:20:26Z</time>
      </trkpt>
      <trkpt lat="42.73427" lon="1.79067">
        <ele>669.81</ele>
        <time>2017-12-03T08:20:40Z</time>
      </trkpt>
      <trkpt lat="42.73439" lon="1.79048">
        <ele>671.88</ele>
        <time>2017-12-03T08:21:09Z</time>
      </trkpt>
      <trkpt lat="42.73449" lon="1.79026">
        <ele>673.31</ele>
        <time>2017-12-03T08:21:26Z</time>
      </trkpt>
      <trkpt lat="42.73463" lon="1.79008">
        <ele>674.5</ele>
        <time>2017-12-03T08:21:43Z</time>
      </trkpt>
      <trkpt lat="42.73478" lon="1.78992">
        <ele>675.59</ele>
        <time>2017-12-03T08:21:58Z</time>
      </trkpt>
      <trkpt lat="42.73485" lon="1.78969">
        <ele>676.89</ele>
        <time>2017-12-03T08:22:15Z</time>
      </trkpt>
      <trkpt lat="42.73495" lon="1.78948">
        <ele>678.58</ele>
        <time>2017-12-03T08:22:38Z</time>
      </trkpt>
      <trkpt lat="42.73501" lon="1.78922">
        <ele>683.49</ele>
        <time>2017-12-03T08:23:53Z</time>
      </trkpt>
      <trkpt lat="42.73508" lon="1.78897">
        <ele>685.73</ele>
        <time>2017-12-03T08:24:14Z</time>
      </trkpt>
      <trkpt lat="42.7352" lon="1.78878">
        <ele>689.2</ele>
        <time>2017-12-03T08:25:13Z</time>
      </trkpt>
      <trkpt lat="42.73528" lon="1.78854">
        <ele>690.6</ele>
        <time>2017-12-03T08:25:27Z</time>
      </trkpt>
      <trkpt lat="42.7354" lon="1.78835">
        <ele>692.01</ele>
        <time>2017-12-03T08:25:43Z</time>
      </trkpt>
      <trkpt lat="42.73552" lon="1.78815">
        <ele>693.72</ele>
        <time>2017-12-03T08:26:09Z</time>
      </trkpt>
      <trkpt lat="42.73564" lon="1.78796">
        <ele>694.62</ele>
        <time>2017-12-03T08:26:25Z</time>
      </trkpt>
      <trkpt lat="42.73574" lon="1.78774">
        <ele>695.27</ele>
        <time>2017-12-03T08:26:38Z</time>
      </trkpt>
      <trkpt lat="42.73589" lon="1.7876">
        <ele>696.42</ele>
        <time>2017-12-03T08:27:07Z</time>
      </trkpt>
      <trkpt lat="42.73605" lon="1.78749">
        <ele>697.54</ele>
        <time>2017-12-03T08:27:34Z</time>
      </trkpt>
      <trkpt lat="42.73622" lon="1.78741">
        <ele>698.3</ele>
        <time>2017-12-03T08:27:53Z</time>
      </trkpt>
      <trkpt lat="42.73632" lon="1.78719">
        <ele>699.05</ele>
        <time>2017-12-03T08:28:10Z</time>
      </trkpt>
      <trkpt lat="42.73649" lon="1.78712">
        <ele>699.79</ele>
        <time>2017-12-03T08:28:26Z</time>
      </trkpt>
      <trkpt lat="42.73631" lon="1.78711">
        <ele>701.16</ele>
        <time>2017-12-03T08:28:54Z</time>
      </trkpt>
      <trkpt lat="42.73631" lon="1.78687">
        <ele>702.38</ele>
        <time>2017-12-03T08:29:27Z</time>
      </trkpt>
      <trkpt lat="42.73643" lon="1.78667">
        <ele>703.1</ele>
        <time>2017-12-03T08:29:49Z</time>
      </trkpt>
      <trkpt lat="42.73651" lon="1.78644">
        <ele>703.92</ele>
        <time>2017-12-03T08:30:11Z</time>
      </trkpt>
      <trkpt lat="42.73663" lon="1.78626">
        <ele>705.05</ele>
        <time>2017-12-03T08:30:33Z</time>
      </trkpt>
      <trkpt lat="42.73667" lon="1.78602">
        <ele>717</ele>
        <time>2017-12-03T08:34:10Z</time>
      </trkpt>
      <trkpt lat="42.73681" lon="1.78584">
        <ele>721.26</ele>
        <time>2017-12-03T08:34:35Z</time>
      </trkpt>
      <trkpt lat="42.73693" lon="1.78565">
        <ele>724.57</ele>
        <time>2017-12-03T08:35:10Z</time>
      </trkpt>
      <trkpt lat="42.73698" lon="1.78541">
        <ele>727.53</ele>
        <time>2017-12-03T08:36:05Z</time>
      </trkpt>
      <trkpt lat="42.73708" lon="1.78517">
        <ele>728.66</ele>
        <time>2017-12-03T08:36:21Z</time>
      </trkpt>
      <trkpt lat="42.73721" lon="1.78499">
        <ele>730.52</ele>
        <time>2017-12-03T08:36:41Z</time>
      </trkpt>
      <trkpt lat="42.73736" lon="1.78485">
        <ele>732.61</ele>
        <time>2017-12-03T08:37:02Z</time>
      </trkpt>
      <trkpt lat="42.73747" lon="1.78464">
        <ele>734.77</ele>
        <time>2017-12-03T08:37:24Z</time>
      </trkpt>
      <trkpt lat="42.73745" lon="1.78438">
        <ele>739.36</ele>
        <time>2017-12-03T08:38:07Z</time>
      </trkpt>
      <trkpt lat="42.73759" lon="1.78421">
        <ele>742.21</ele>
        <time>2017-12-03T08:38:29Z</time>
      </trkpt>
      <trkpt lat="42.73776" lon="1.78409">
        <ele>745.33</ele>
        <time>2017-12-03T08:38:47Z</time>
      </trkpt>
      <trkpt lat="42.73791" lon="1.78394">
        <ele>747.78</ele>
        <time>2017-12-03T08:39:01Z</time>
      </trkpt>
      <trkpt lat="42.73799" lon="1.78372">
        <ele>754.49</ele>
        <time>2017-12-03T08:39:45Z</time>
      </trkpt>
      <trkpt lat="42.73814" lon="1.78358">
        <ele>773.98</ele>
        <time>2017-12-03T08:43:20Z</time>
      </trkpt>
      <trkpt lat="42.73825" lon="1.78336">
        <ele>775.24</ele>
        <time>2017-12-03T08:43:42Z</time>
      </trkpt>
      <trkpt lat="42.73806" lon="1.78334">
        <ele>778.09</ele>
        <time>2017-12-03T08:44:35Z</time>
      </trkpt>
      <trkpt lat="42.73788" lon="1.78341">
        <ele>779.37</ele>
        <time>2017-12-03T08:44:53Z</time>
      </trkpt>
      <trkpt lat="42.73771" lon="1.78353">
        <ele>780.79</ele>
        <time>2017-12-03T08:45:15Z</time>
      </trkpt>
      <trkpt lat="42.73753" lon="1.78359">
        <ele>783.14</ele>
        <time>2017-12-03T08:47:05Z</time>
      </trkpt>
      <trkpt lat="42.73746" lon="1.78337">
        <ele>785.95</ele>
        <time>2017-12-03T08:47:47Z</time>
      </trkpt>
      <trkpt lat="42.73732" lon="1.78321">
        <ele>787.16</ele>
        <time>2017-12-03T08:48:15Z</time>
      </trkpt>
      <trkpt lat="42.73717" lon="1.78306">
        <ele>788.73</ele>
        <time>2017-12-03T08:48:54Z</time>
      </trkpt>
      <trkpt lat="42.73701" lon="1.78294">
        <ele>794.34</ele>
        <time>2017-12-03T08:49:58Z</time>
      </trkpt>
      <trkpt lat="42.73694" lon="1.7827">
        <ele>799.33</ele>
        <time>2017-12-03T08:50:42Z</time>
      </trkpt>
      <trkpt lat="42.73676" lon="1.78262">
        <ele>810.47</ele>
        <time>2017-12-03T08:51:54Z</time>
      </trkpt>
      <trkpt lat="42.73667" lon="1.7824">
        <ele>823.44</ele>
        <time>2017-12-03T08:53:07Z</time>
      </trkpt>
      <trkpt lat="42.73656" lon="1.7822">
        <ele>835.29</ele>
        <time>2017-12-03T08:54:26Z</time>
      </trkpt>
      <trkpt lat="42.73639" lon="1.78211">
        <ele>853.87</ele>
        <time>2017-12-03T08:55:54Z</time>
      </trkpt>
      <trkpt lat="42.73629" lon="1.7819">
        <ele>866.07</ele>
        <time>2017-12-03T08:57:00Z</time>
      </trkpt>
      <trkpt lat="42.7361" lon="1.78187">
        <ele>884.97</ele>
        <time>2017-12-03T09:00:08Z</time>
      </trkpt>
      <trkpt lat="42.73593" lon="1.7818">
        <ele>895.4</ele>
        <time>2017-12-03T09:02:04Z</time>
      </trkpt>
      <trkpt lat="42.73582" lon="1.7816">
        <ele>901.96</ele>
        <time>2017-12-03T09:03:15Z</time>
      </trkpt>
      <trkpt lat="42.73589" lon="1.78136">
        <ele>905.83</ele>
        <time>2017-12-03T09:03:52Z</time>
      </trkpt>
      <trkpt lat="42.73592" lon="1.78112">
        <ele>911.93</ele>
        <time>2017-12-03T09:04:50Z</time>
      </trkpt>
      <trkpt lat="42.73595" lon="1.78087">
        <ele>915.14</ele>
        <time>2017-12-03T09:05:12Z</time>
      </trkpt>
      <trkpt lat="42.73606" lon="1.78065">
        <ele>918.4</ele>
        <time>2017-12-03T09:05:38Z</time>
      </trkpt>
      <trkpt lat="42.73608" lon="1.78041">
        <ele>923.72</ele>
        <time>2017-12-03T09:06:19Z</time>
      </trkpt>
      <trkpt lat="42.73594" lon="1.78026">
        <ele>930.02</ele>
        <time>2017-12-03T09:07:01Z</time>
      </trkpt>
      <trkpt lat="42.73605" lon="1.78007">
        <ele>937.11</ele>
        <time>2017-12-03T09:07:45Z</time>
      </trkpt>
      <trkpt lat="42.73598" lon="1.77985">
        <ele>951.88</ele>
        <time>2017-12-03T09:09:16Z</time>
      </trkpt>
      <trkpt lat="42.73586" lon="1.77964">
        <ele>954.69</ele>
        <time>2017-12-03T09:09:39Z</time>
      </trkpt>
      <trkpt lat="42.73589" lon="1.77939">
        <ele>961.02</ele>
        <time>2017-12-03T09:10:28Z</time>
      </trkpt>
      <trkpt lat="42.73591" lon="1.77914">
        <ele>964.18</ele>
        <time>2017-12-03T09:10:59Z</time>
      </trkpt>
      <trkpt lat="42.73593" lon="1.77888">
        <ele>967</ele>
        <time>2017-12-03T09:11:27Z</time>
      </trkpt>
      <trkpt lat="42.73606" lon="1.7787">
        <ele>971.28</ele>
        <time>2017-12-03T09:11:52Z</time>
      </trkpt>
      <trkpt lat="42.73623" lon="1.77879">
        <ele>983.37</ele>
        <time>2017-12-03T09:13:03Z</time>
      </trkpt>
      <trkpt lat="42.7364" lon="1.7787">
        <ele>1006.61</ele>
        <time>2017-12-03T09:15:56Z</time>
      </trkpt>
      <trkpt lat="42.73655" lon="1.77854">
        <ele>1010.46</ele>
        <time>2017-12-03T09:16:33Z</time>
      </trkpt>
      <trkpt lat="42.73657" lon="1.7783">
        <ele>1012.58</ele>
        <time>2017-12-03T09:17:06Z</time>
      </trkpt>
      <trkpt lat="42.73654" lon="1.77805">
        <ele>1014.56</ele>
        <time>2017-12-03T09:17:44Z</time>
      </trkpt>
      <trkpt lat="42.73641" lon="1.77788">
        <ele>1015.95</ele>
        <time>2017-12-03T09:18:17Z</time>
      </trkpt>
      <trkpt lat="42.7363" lon="1.77769">
        <ele>1020.03</ele>
        <time>2017-12-03T09:19:35Z</time>
      </trkpt>
      <trkpt lat="42.73614" lon="1.77756">
        <ele>1025.39</ele>
        <time>2017-12-03T09:20:44Z</time>
      </trkpt>
      <trkpt lat="42.73603" lon="1.77734">
        <ele>1031.91</ele>
        <time>2017-12-03T09:21:40Z</time>
      </trkpt>
      <trkpt lat="42.73611" lon="1.77712">
        <ele>1036.34</ele>
        <time>2017-12-03T09:22:19Z</time>
      </trkpt>
      <trkpt lat="42.73615" lon="1.77687">
        <ele>1039.94</ele>
        <time>2017-12-03T09:22:52Z</time>
      </trkpt>
      <trkpt lat="42.73614" lon="1.77661">
        <ele>1049.32</ele>
        <time>2017-12-03T09:24:06Z</time>
      </trkpt>
      <trkpt lat="42.73597" lon="1.77652">
        <ele>1063.96</ele>
        <time>2017-12-03T09:25:40Z</time>
      </trkpt>
      <trkpt lat="42.73579" lon="1.77656">
        <ele>1072.55</ele>
        <time>2017-12-03T09:26:41Z</time>
      </trkpt>
      <trkpt lat="42.73562" lon="1.77667">
        <ele>1076.77</ele>
        <time>2017-12-03T09:27:27Z</time>
      </trkpt>
      <trkpt lat="42.73549" lon="1.77685">
        <ele>1080</ele>
        <time>2017-12-03T09:28:02Z</time>
      </trkpt>
      <trkpt lat="42.73551" lon="1.77661">
        <ele>1094.5</ele>
        <time>2017-12-03T09:29:58Z</time>
      </trkpt>
      <trkpt lat="42.73555" lon="1.77636">
        <ele>1100.45</ele>
        <time>2017-12-03T09:30:35Z</time>
      </trkpt>
      <trkpt lat="42.73541" lon="1.77619">
        <ele>1104.71</ele>
        <time>2017-12-03T09:30:56Z</time>
      </trkpt>
      <trkpt lat="42.73539" lon="1.77595">
        <ele>1112.69</ele>
        <time>2017-12-03T09:31:40Z</time>
      </trkpt>
      <trkpt lat="42.73522" lon="1.77587">
        <ele>1126.6</ele>
        <time>2017-12-03T09:33:22Z</time>
      </trkpt>
      <trkpt lat="42.73509" lon="1.77605">
        <ele>1129.19</ele>
        <time>2017-12-03T09:33:45Z</time>
      </trkpt>
      <trkpt lat="42.73496" lon="1.77622">
        <ele>1133.74</ele>
        <time>2017-12-03T09:34:27Z</time>
      </trkpt>
      <trkpt lat="42.73481" lon="1.77637">
        <ele>1137.51</ele>
        <time>2017-12-03T09:35:05Z</time>
      </trkpt>
      <trkpt lat="42.73465" lon="1.7765">
        <ele>1141.39</ele>
        <time>2017-12-03T09:35:44Z</time>
      </trkpt>
      <trkpt lat="42.73446" lon="1.77645">
        <ele>1145.44</ele>
        <time>2017-12-03T09:36:19Z</time>
      </trkpt>
      <trkpt lat="42.7343" lon="1.77658">
        <ele>1152.27</ele>
        <time>2017-12-03T09:36:59Z</time>
      </trkpt>
      <trkpt lat="42.73424" lon="1.77684">
        <ele>1154.57</ele>
        <time>2017-12-03T09:37:12Z</time>
      </trkpt>
      <trkpt lat="42.73442" lon="1.77681">
        <ele>1181.16</ele>
        <time>2017-12-03T09:41:36Z</time>
      </trkpt>
      <trkpt lat="42.73427" lon="1.77694">
        <ele>1184.62</ele>
        <time>2017-12-03T09:42:55Z</time>
      </trkpt>
      <trkpt lat="42.73418" lon="1.77716">
        <ele>1186.82</ele>
        <time>2017-12-03T09:43:18Z</time>
      </trkpt>
      <trkpt lat="42.73412" lon="1.77739">
        <ele>1188.53</ele>
        <time>2017-12-03T09:43:44Z</time>
      </trkpt>
      <trkpt lat="42.73406" lon="1.77762">
        <ele>1190.7</ele>
        <time>2017-12-03T09:44:34Z</time>
      </trkpt>
      <trkpt lat="42.73393" lon="1.77781">
        <ele>1192.55</ele>
        <time>2017-12-03T09:45:21Z</time>
      </trkpt>
      <trkpt lat="42.73376" lon="1.7779">
        <ele>1195.13</ele>
        <time>2017-12-03T09:46:16Z</time>
      </trkpt>
      <trkpt lat="42.73358" lon="1.77785">
        <ele>1196.78</ele>
        <time>2017-12-03T09:46:53Z</time>
      </trkpt>
      <trkpt lat="42.73344" lon="1.77801">
        <ele>1198.27</ele>
        <time>2017-12-03T09:47:22Z</time>
      </trkpt>
      <trkpt lat="42.73325" lon="1.77799">
        <ele>1199.69</ele>
        <time>2017-12-03T09:47:53Z</time>
      </trkpt>
      <trkpt lat="42.73308" lon="1.77789">
        <ele>1203.33</ele>
        <time>2017-12-03T09:48:44Z</time>
      </trkpt>
      <trkpt lat="42.73293" lon="1.77772">
        <ele>1207.15</ele>
        <time>2017-12-03T09:49:26Z</time>
      </trkpt>
      <trkpt lat="42.73279" lon="1.77756">
        <ele>1208.79</ele>
        <time>2017-12-03T09:49:45Z</time>
      </trkpt>
      <trkpt lat="42.73263" lon="1.77739">
        <ele>1212</ele>
        <time>2017-12-03T09:50:15Z</time>
      </trkpt>
      <trkpt lat="42.73249" lon="1.77721">
        <ele>1214.63</ele>
        <time>2017-12-03T09:50:41Z</time>
      </trkpt>
      <trkpt lat="42.73231" lon="1.77722">
        <ele>1219.42</ele>
        <time>2017-12-03T09:51:25Z</time>
      </trkpt>
      <trkpt lat="42.73214" lon="1.77715">
        <ele>1223.39</ele>
        <time>2017-12-03T09:51:50Z</time>
      </trkpt>
      <trkpt lat="42.73195" lon="1.77722">
        <ele>1226.92</ele>
        <time>2017-12-03T09:52:12Z</time>
      </trkpt>
      <trkpt lat="42.73181" lon="1.77705">
        <ele>1233.93</ele>
        <time>2017-12-03T09:52:45Z</time>
      </trkpt>
      <trkpt lat="42.73166" lon="1.77692">
        <ele>1239.37</ele>
        <time>2017-12-03T09:53:12Z</time>
      </trkpt>
      <trkpt lat="42.73147" lon="1.7769">
        <ele>1244.58</ele>
        <time>2017-12-03T09:53:44Z</time>
      </trkpt>
      <trkpt lat="42.7313" lon="1.77699">
        <ele>1247.96</ele>
        <time>2017-12-03T09:54:16Z</time>
      </trkpt>
      <trkpt lat="42.73113" lon="1.7771">
        <ele>1264.58</ele>
        <time>2017-12-03T09:57:53Z</time>
      </trkpt>
      <trkpt lat="42.73097" lon="1.777">
        <ele>1266.11</ele>
        <time>2017-12-03T09:58:31Z</time>
      </trkpt>
      <trkpt lat="42.73082" lon="1.77687">
        <ele>1267.23</ele>
        <time>2017-12-03T09:59:03Z</time>
      </trkpt>
      <trkpt lat="42.73067" lon="1.77672">
        <ele>1267.87</ele>
        <time>2017-12-03T09:59:51Z</time>
      </trkpt>
      <trkpt lat="42.73048" lon="1.77668">
        <ele>1268.36</ele>
        <time>2017-12-03T10:00:21Z</time>
      </trkpt>
      <trkpt lat="42.73034" lon="1.77652">
        <ele>1269.17</ele>
        <time>2017-12-03T10:01:00Z</time>
      </trkpt>
      <trkpt lat="42.73024" lon="1.77631">
        <ele>1270.51</ele>
        <time>2017-12-03T10:01:29Z</time>
      </trkpt>
      <trkpt lat="42.73007" lon="1.77621">
        <ele>1273.67</ele>
        <time>2017-12-03T10:02:15Z</time>
      </trkpt>
      <trkpt lat="42.73002" lon="1.77598">
        <ele>1277.04</ele>
        <time>2017-12-03T10:02:45Z</time>
      </trkpt>
      <trkpt lat="42.7299" lon="1.77578">
        <ele>1281.09</ele>
        <time>2017-12-03T10:03:26Z</time>
      </trkpt>
      <trkpt lat="42.72976" lon="1.77561">
        <ele>1283.34</ele>
        <time>2017-12-03T10:03:48Z</time>
      </trkpt>
      <trkpt lat="42.72969" lon="1.77538">
        <ele>1287.72</ele>
        <time>2017-12-03T10:04:23Z</time>
      </trkpt>
      <trkpt lat="42.72955" lon="1.77523">
        <ele>1291.63</ele>
        <time>2017-12-03T10:04:53Z</time>
      </trkpt>
      <trkpt lat="42.72941" lon="1.77508">
        <ele>1294.61</ele>
        <time>2017-12-03T10:05:22Z</time>
      </trkpt>
      <trkpt lat="42.72926" lon="1.77493">
        <ele>1299.1</ele>
        <time>2017-12-03T10:06:02Z</time>
      </trkpt>
      <trkpt lat="42.72913" lon="1.77477">
        <ele>1304.93</ele>
        <time>2017-12-03T10:06:40Z</time>
      </trkpt>
      <trkpt lat="42.72896" lon="1.77465">
        <ele>1310.83</ele>
        <time>2017-12-03T10:07:18Z</time>
      </trkpt>
      <trkpt lat="42.72881" lon="1.77451">
        <ele>1315.54</ele>
        <time>2017-12-03T10:07:54Z</time>
      </trkpt>
      <trkpt lat="42.72865" lon="1.7744">
        <ele>1319.23</ele>
        <time>2017-12-03T10:08:20Z</time>
      </trkpt>
      <trkpt lat="42.72847" lon="1.77432">
        <ele>1323.11</ele>
        <time>2017-12-03T10:08:50Z</time>
      </trkpt>
      <trkpt lat="42.7283" lon="1.77423">
        <ele>1326.13</ele>
        <time>2017-12-03T10:09:12Z</time>
      </trkpt>
      <trkpt lat="42.72813" lon="1.77413">
        <ele>1330.55</ele>
        <time>2017-12-03T10:09:44Z</time>
      </trkpt>
      <trkpt lat="42.72796" lon="1.77407">
        <ele>1334.51</ele>
        <time>2017-12-03T10:10:18Z</time>
      </trkpt>
      <trkpt lat="42.72779" lon="1.77394">
        <ele>1337.63</ele>
        <time>2017-12-03T10:10:45Z</time>
      </trkpt>
      <trkpt lat="42.72764" lon="1.77381">
        <ele>1342.12</ele>
        <time>2017-12-03T10:11:27Z</time>
      </trkpt>
      <trkpt lat="42.72757" lon="1.77357">
        <ele>1344.65</ele>
        <time>2017-12-03T10:11:59Z</time>
      </trkpt>
      <trkpt lat="42.72744" lon="1.77339">
        <ele>1348.5</ele>
        <time>2017-12-03T10:12:24Z</time>
      </trkpt>
      <trkpt lat="42.72731" lon="1.77321">
        <ele>1353.33</ele>
        <time>2017-12-03T10:12:54Z</time>
      </trkpt>
      <trkpt lat="42.7272" lon="1.77302">
        <ele>1359.42</ele>
        <time>2017-12-03T10:13:20Z</time>
      </trkpt>
      <trkpt lat="42.72711" lon="1.77279">
        <ele>1366.04</ele>
        <time>2017-12-03T10:13:52Z</time>
      </trkpt>
      <trkpt lat="42.72708" lon="1.77254">
        <ele>1371.14</ele>
        <time>2017-12-03T10:14:20Z</time>
      </trkpt>
      <trkpt lat="42.72699" lon="1.77232">
        <ele>1377.15</ele>
        <time>2017-12-03T10:14:57Z</time>
      </trkpt>
      <trkpt lat="42.72688" lon="1.77213">
        <ele>1383.01</ele>
        <time>2017-12-03T10:15:29Z</time>
      </trkpt>
      <trkpt lat="42.72678" lon="1.77192">
        <ele>1389.3</ele>
        <time>2017-12-03T10:16:12Z</time>
      </trkpt>
      <trkpt lat="42.72666" lon="1.77173">
        <ele>1394.05</ele>
        <time>2017-12-03T10:17:01Z</time>
      </trkpt>
      <trkpt lat="42.72648" lon="1.7717">
        <ele>1397.72</ele>
        <time>2017-12-03T10:18:03Z</time>
      </trkpt>
      <trkpt lat="42.7264" lon="1.77147">
        <ele>1416.69</ele>
        <time>2017-12-03T10:26:33Z</time>
      </trkpt>
      <trkpt lat="42.72628" lon="1.77125">
        <ele>1417.24</ele>
        <time>2017-12-03T10:26:57Z</time>
      </trkpt>
      <trkpt lat="42.72623" lon="1.771">
        <ele>1418.07</ele>
        <time>2017-12-03T10:27:32Z</time>
      </trkpt>
      <trkpt lat="42.72616" lon="1.77076">
        <ele>1419.73</ele>
        <time>2017-12-03T10:28:22Z</time>
      </trkpt>
      <trkpt lat="42.72603" lon="1.77058">
        <ele>1421.46</ele>
        <time>2017-12-03T10:29:07Z</time>
      </trkpt>
      <trkpt lat="42.72595" lon="1.77035">
        <ele>1423.5</ele>
        <time>2017-12-03T10:29:36Z</time>
      </trkpt>
      <trkpt lat="42.72585" lon="1.77014">
        <ele>1427.55</ele>
        <time>2017-12-03T10:30:20Z</time>
      </trkpt>
      <trkpt lat="42.72581" lon="1.7699">
        <ele>1430.94</ele>
        <time>2017-12-03T10:30:55Z</time>
      </trkpt>
      <trkpt lat="42.72573" lon="1.76968">
        <ele>1436.57</ele>
        <time>2017-12-03T10:31:44Z</time>
      </trkpt>
      <trkpt lat="42.72563" lon="1.76948">
        <ele>1446.36</ele>
        <time>2017-12-03T10:33:02Z</time>
      </trkpt>
      <trkpt lat="42.72554" lon="1.76927">
        <ele>1451.35</ele>
        <time>2017-12-03T10:33:46Z</time>
      </trkpt>
      <trkpt lat="42.72544" lon="1.76905">
        <ele>1456.35</ele>
        <time>2017-12-03T10:34:30Z</time>
      </trkpt>
      <trkpt lat="42.72536" lon="1.76883">
        <ele>1460.19</ele>
        <time>2017-12-03T10:35:06Z</time>
      </trkpt>
      <trkpt lat="42.72529" lon="1.7686">
        <ele>1464.84</ele>
        <time>2017-12-03T10:35:48Z</time>
      </trkpt>
      <trkpt lat="42.72521" lon="1.76838">
        <ele>1470.52</ele>
        <time>2017-12-03T10:36:33Z</time>
      </trkpt>
      <trkpt lat="42.72515" lon="1.76814">
        <ele>1475.9</ele>
        <time>2017-12-03T10:37:10Z</time>
      </trkpt>
      <trkpt lat="42.72508" lon="1.76791">
        <ele>1479.83</ele>
        <time>2017-12-03T10:37:33Z</time>
      </trkpt>
      <trkpt lat="42.72499" lon="1.76769">
        <ele>1485.26</ele>
        <time>2017-12-03T10:38:04Z</time>
      </trkpt>
      <trkpt lat="42.72486" lon="1.76751">
        <ele>1489.58</ele>
        <time>2017-12-03T10:38:33Z</time>
      </trkpt>
      <trkpt lat="42.72475" lon="1.76731">
        <ele>1493.78</ele>
        <time>2017-12-03T10:39:03Z</time>
      </trkpt>
      <trkpt lat="42.72471" lon="1.76707">
        <ele>1499.22</ele>
        <time>2017-12-03T10:39:44Z</time>
      </trkpt>
      <trkpt lat="42.72413" lon="1.76678">
        <ele>1511.1</ele>
        <time>2017-12-03T10:42:01Z</time>
      </trkpt>
      <trkpt lat="42.72393" lon="1.76675">
        <ele>1511.34</ele>
        <time>2017-12-03T10:42:02Z</time>
      </trkpt>
      <trkpt lat="42.72414" lon="1.76655">
        <ele>1511.53</ele>
        <time>2017-12-03T10:42:06Z</time>
      </trkpt>
      <trkpt lat="42.72431" lon="1.76662">
        <ele>1511.72</ele>
        <time>2017-12-03T10:42:38Z</time>
      </trkpt>
      <trkpt lat="42.72449" lon="1.76668">
        <ele>1512.06</ele>
        <time>2017-12-03T10:43:15Z</time>
      </trkpt>
      <trkpt lat="42.72463" lon="1.76685">
        <ele>1513.14</ele>
        <time>2017-12-03T10:43:55Z</time>
      </trkpt>
      <trkpt lat="42.72471" lon="1.76663">
        <ele>1521.19</ele>
        <time>2017-12-03T10:52:33Z</time>
      </trkpt>
      <trkpt lat="42.72485" lon="1.76647">
        <ele>1521.69</ele>
        <time>2017-12-03T10:52:54Z</time>
      </trkpt>
      <trkpt lat="42.72501" lon="1.76636">
        <ele>1522.22</ele>
        <time>2017-12-03T10:53:23Z</time>
      </trkpt>
      <trkpt lat="42.72516" lon="1.76621">
        <ele>1522.75</ele>
        <time>2017-12-03T10:53:52Z</time>
      </trkpt>
      <trkpt lat="42.72514" lon="1.76596">
        <ele>1523.22</ele>
        <time>2017-12-03T10:54:22Z</time>
      </trkpt>
      <trkpt lat="42.72519" lon="1.76572">
        <ele>1523.79</ele>
        <time>2017-12-03T10:55:14Z</time>
      </trkpt>
      <trkpt lat="42.72529" lon="1.76551">
        <ele>1524.17</ele>
        <time>2017-12-03T10:55:52Z</time>
      </trkpt>
      <trkpt lat="42.72536" lon="1.76528">
        <ele>1524.81</ele>
        <time>2017-12-03T10:56:47Z</time>
      </trkpt>
      <trkpt lat="42.72544" lon="1.76506">
        <ele>1525.67</ele>
        <time>2017-12-03T10:57:44Z</time>
      </trkpt>
      <trkpt lat="42.72546" lon="1.76481">
        <ele>1526.52</ele>
        <time>2017-12-03T10:58:25Z</time>
      </trkpt>
      <trkpt lat="42.72549" lon="1.76457">
        <ele>1527.88</ele>
        <time>2017-12-03T10:59:09Z</time>
      </trkpt>
      <trkpt lat="42.72561" lon="1.76438">
        <ele>1529.76</ele>
        <time>2017-12-03T11:00:06Z</time>
      </trkpt>
      <trkpt lat="42.72571" lon="1.76418">
        <ele>1530.82</ele>
        <time>2017-12-03T11:00:33Z</time>
      </trkpt>
      <trkpt lat="42.72572" lon="1.76393">
        <ele>1533.5</ele>
        <time>2017-12-03T11:01:27Z</time>
      </trkpt>
      <trkpt lat="42.72559" lon="1.76376">
        <ele>1536.74</ele>
        <time>2017-12-03T11:01:53Z</time>
      </trkpt>
      <trkpt lat="42.72555" lon="1.76351">
        <ele>1539.5</ele>
        <time>2017-12-03T11:02:19Z</time>
      </trkpt>
      <trkpt lat="42.72545" lon="1.7633">
        <ele>1541.97</ele>
        <time>2017-12-03T11:02:46Z</time>
      </trkpt>
      <trkpt lat="42.72545" lon="1.76305">
        <ele>1544.63</ele>
        <time>2017-12-03T11:03:18Z</time>
      </trkpt>
      <trkpt lat="42.72531" lon="1.76287">
        <ele>1546.86</ele>
        <time>2017-12-03T11:03:53Z</time>
      </trkpt>
      <trkpt lat="42.72516" lon="1.76273">
        <ele>1548.39</ele>
        <time>2017-12-03T11:04:17Z</time>
      </trkpt>
      <trkpt lat="42.72503" lon="1.76254">
        <ele>1549.89</ele>
        <time>2017-12-03T11:04:45Z</time>
      </trkpt>
      <trkpt lat="42.72494" lon="1.76233">
        <ele>1551.64</ele>
        <time>2017-12-03T11:05:13Z</time>
      </trkpt>
      <trkpt lat="42.72477" lon="1.76221">
        <ele>1553.53</ele>
        <time>2017-12-03T11:05:39Z</time>
      </trkpt>
      <trkpt lat="42.72461" lon="1.7621">
        <ele>1555.88</ele>
        <time>2017-12-03T11:06:15Z</time>
      </trkpt>
      <trkpt lat="42.72456" lon="1.76187">
        <ele>1558.83</ele>
        <time>2017-12-03T11:07:19Z</time>
      </trkpt>
      <trkpt lat="42.72454" lon="1.76162">
        <ele>1560.64</ele>
        <time>2017-12-03T11:07:52Z</time>
      </trkpt>
      <trkpt lat="42.7245" lon="1.76137">
        <ele>1565.11</ele>
        <time>2017-12-03T11:10:25Z</time>
      </trkpt>
      <trkpt lat="42.72435" lon="1.76123">
        <ele>1567.21</ele>
        <time>2017-12-03T11:10:54Z</time>
      </trkpt>
      <trkpt lat="42.72419" lon="1.76111">
        <ele>1569.31</ele>
        <time>2017-12-03T11:11:58Z</time>
      </trkpt>
      <trkpt lat="42.72402" lon="1.76104">
        <ele>1570.77</ele>
        <time>2017-12-03T11:13:52Z</time>
      </trkpt>
      <trkpt lat="42.72383" lon="1.76096">
        <ele>1571.02</ele>
        <time>2017-12-03T11:14:31Z</time>
      </trkpt>
      <trkpt lat="42.72365" lon="1.761">
        <ele>1571.64</ele>
        <time>2017-12-03T11:15:11Z</time>
      </trkpt>
      <trkpt lat="42.72349" lon="1.76088">
        <ele>1572.32</ele>
        <time>2017-12-03T11:15:43Z</time>
      </trkpt>
      <trkpt lat="42.72333" lon="1.76075">
        <ele>1573.08</ele>
        <time>2017-12-03T11:16:28Z</time>
      </trkpt>
      <trkpt lat="42.72315" lon="1.76074">
        <ele>1573.86</ele>
        <time>2017-12-03T11:17:19Z</time>
      </trkpt>
      <trkpt lat="42.72298" lon="1.76068">
        <ele>1574.55</ele>
        <time>2017-12-03T11:17:40Z</time>
      </trkpt>
      <trkpt lat="42.72285" lon="1.76051">
        <ele>1578.93</ele>
        <time>2017-12-03T11:18:36Z</time>
      </trkpt>
      <trkpt lat="42.72269" lon="1.76036">
        <ele>1586.53</ele>
        <time>2017-12-03T11:19:25Z</time>
      </trkpt>
      <trkpt lat="42.72254" lon="1.76022">
        <ele>1597</ele>
        <time>2017-12-03T11:20:27Z</time>
      </trkpt>
      <trkpt lat="42.72254" lon="1.75997">
        <ele>1603.87</ele>
        <time>2017-12-03T11:21:31Z</time>
      </trkpt>
      <trkpt lat="42.72239" lon="1.75982">
        <ele>1609.99</ele>
        <time>2017-12-03T11:22:09Z</time>
      </trkpt>
      <trkpt lat="42.72229" lon="1.75962">
        <ele>1616.76</ele>
        <time>2017-12-03T11:23:10Z</time>
      </trkpt>
      <trkpt lat="42.72214" lon="1.75947">
        <ele>1625.04</ele>
        <time>2017-12-03T11:26:36Z</time>
      </trkpt>
      <trkpt lat="42.72196" lon="1.75942">
        <ele>1629.1</ele>
        <time>2017-12-03T11:27:40Z</time>
      </trkpt>
      <trkpt lat="42.72186" lon="1.75919">
        <ele>1631.84</ele>
        <time>2017-12-03T11:28:57Z</time>
      </trkpt>
      <trkpt lat="42.72192" lon="1.75896">
        <ele>1633.15</ele>
        <time>2017-12-03T11:30:05Z</time>
      </trkpt>
      <trkpt lat="42.72184" lon="1.75919">
        <ele>1635.42</ele>
        <time>2017-12-03T11:31:10Z</time>
      </trkpt>
      <trkpt lat="42.72171" lon="1.75935">
        <ele>1636.52</ele>
        <time>2017-12-03T11:32:06Z</time>
      </trkpt>
      <trkpt lat="42.72158" lon="1.75953">
        <ele>1637.26</ele>
        <time>2017-12-03T11:32:35Z</time>
      </trkpt>
      <trkpt lat="42.72142" lon="1.75966">
        <ele>1638.7</ele>
        <time>2017-12-03T11:33:28Z</time>
      </trkpt>
      <trkpt lat="42.72133" lon="1.75989">
        <ele>1640.56</ele>
        <time>2017-12-03T11:34:21Z</time>
      </trkpt>
      <trkpt lat="42.72124" lon="1.7601">
        <ele>1643.86</ele>
        <time>2017-12-03T11:35:20Z</time>
      </trkpt>
      <trkpt lat="42.72112" lon="1.76029">
        <ele>1645.03</ele>
        <time>2017-12-03T11:35:42Z</time>
      </trkpt>
      <trkpt lat="42.72098" lon="1.76044">
        <ele>1646.04</ele>
        <time>2017-12-03T11:36:04Z</time>
      </trkpt>
      <trkpt lat="42.72082" lon="1.76032">
        <ele>1647.93</ele>
        <time>2017-12-03T11:36:31Z</time>
      </trkpt>
      <trkpt lat="42.72069" lon="1.76014">
        <ele>1650.79</ele>
        <time>2017-12-03T11:37:06Z</time>
      </trkpt>
      <trkpt lat="42.72055" lon="1.75999">
        <ele>1654.22</ele>
        <time>2017-12-03T11:37:41Z</time>
      </trkpt>
      <trkpt lat="42.72041" lon="1.75983">
        <ele>1656.75</ele>
        <time>2017-12-03T11:38:06Z</time>
      </trkpt>
      <trkpt lat="42.7203" lon="1.75964">
        <ele>1660.26</ele>
        <time>2017-12-03T11:38:46Z</time>
      </trkpt>
      <trkpt lat="42.72027" lon="1.75938">
        <ele>1661.93</ele>
        <time>2017-12-03T11:39:29Z</time>
      </trkpt>
      <trkpt lat="42.72026" lon="1.75965">
        <ele>1673.63</ele>
        <time>2017-12-03T11:42:28Z</time>
      </trkpt>
      <trkpt lat="42.72027" lon="1.7594">
        <ele>1675.56</ele>
        <time>2017-12-03T11:42:43Z</time>
      </trkpt>
      <trkpt lat="42.72028" lon="1.75972">
        <ele>1694.68</ele>
        <time>2017-12-03T12:27:59Z</time>
      </trkpt>
      <trkpt lat="42.72028" lon="1.75948">
        <ele>1694.67</ele>
        <time>2017-12-03T12:31:26Z</time>
      </trkpt>
      <trkpt lat="42.72042" lon="1.75931">
        <ele>1694.79</ele>
        <time>2017-12-03T12:49:41Z</time>
      </trkpt>
      <trkpt lat="42.72027" lon="1.75947">
        <ele>1694.86</ele>
        <time>2017-12-03T12:53:56Z</time>
      </trkpt>
      <trkpt lat="42.72033" lon="1.75971">
        <ele>1694.41</ele>
        <time>2017-12-03T12:59:51Z</time>
      </trkpt>
      <trkpt lat="42.72043" lon="1.75992">
        <ele>1694.28</ele>
        <time>2017-12-03T13:00:13Z</time>
      </trkpt>
      <trkpt lat="42.72061" lon="1.76001">
        <ele>1694.11</ele>
        <time>2017-12-03T13:00:33Z</time>
      </trkpt>
      <trkpt lat="42.7208" lon="1.76002">
        <ele>1693.87</ele>
        <time>2017-12-03T13:00:56Z</time>
      </trkpt>
      <trkpt lat="42.72099" lon="1.75999">
        <ele>1693.66</ele>
        <time>2017-12-03T13:01:11Z</time>
      </trkpt>
      <trkpt lat="42.72117" lon="1.76001">
        <ele>1693.28</ele>
        <time>2017-12-03T13:01:37Z</time>
      </trkpt>
      <trkpt lat="42.72132" lon="1.75985">
        <ele>1692.82</ele>
        <time>2017-12-03T13:02:07Z</time>
      </trkpt>
      <trkpt lat="42.72147" lon="1.75973">
        <ele>1692.45</ele>
        <time>2017-12-03T13:02:42Z</time>
      </trkpt>
      <trkpt lat="42.7216" lon="1.75954">
        <ele>1692.09</ele>
        <time>2017-12-03T13:03:14Z</time>
      </trkpt>
      <trkpt lat="42.72171" lon="1.75936">
        <ele>1691.84</ele>
        <time>2017-12-03T13:03:35Z</time>
      </trkpt>
      <trkpt lat="42.72178" lon="1.7591">
        <ele>1691.65</ele>
        <time>2017-12-03T13:03:49Z</time>
      </trkpt>
      <trkpt lat="42.72192" lon="1.75895">
        <ele>1691.35</ele>
        <time>2017-12-03T13:04:09Z</time>
      </trkpt>
      <trkpt lat="42.72209" lon="1.75886">
        <ele>1690.63</ele>
        <time>2017-12-03T13:04:43Z</time>
      </trkpt>
      <trkpt lat="42.72217" lon="1.75908">
        <ele>1688.33</ele>
        <time>2017-12-03T13:05:47Z</time>
      </trkpt>
      <trkpt lat="42.7222" lon="1.75933">
        <ele>1686.89</ele>
        <time>2017-12-03T13:06:22Z</time>
      </trkpt>
      <trkpt lat="42.72236" lon="1.75943">
        <ele>1684.85</ele>
        <time>2017-12-03T13:06:58Z</time>
      </trkpt>
      <trkpt lat="42.72242" lon="1.75967">
        <ele>1682.11</ele>
        <time>2017-12-03T13:07:39Z</time>
      </trkpt>
      <trkpt lat="42.72242" lon="1.75992">
        <ele>1680.92</ele>
        <time>2017-12-03T13:07:57Z</time>
      </trkpt>
      <trkpt lat="42.72246" lon="1.76017">
        <ele>1679.49</ele>
        <time>2017-12-03T13:08:18Z</time>
      </trkpt>
      <trkpt lat="42.72253" lon="1.76041">
        <ele>1677.44</ele>
        <time>2017-12-03T13:08:47Z</time>
      </trkpt>
      <trkpt lat="42.72257" lon="1.76065">
        <ele>1675.09</ele>
        <time>2017-12-03T13:09:13Z</time>
      </trkpt>
      <trkpt lat="42.72269" lon="1.76085">
        <ele>1672.33</ele>
        <time>2017-12-03T13:09:35Z</time>
      </trkpt>
      <trkpt lat="42.72279" lon="1.76108">
        <ele>1670.49</ele>
        <time>2017-12-03T13:09:48Z</time>
      </trkpt>
      <trkpt lat="42.72294" lon="1.76123">
        <ele>1666.04</ele>
        <time>2017-12-03T13:10:19Z</time>
      </trkpt>
      <trkpt lat="42.72314" lon="1.7613">
        <ele>1663.47</ele>
        <time>2017-12-03T13:10:37Z</time>
      </trkpt>
      <trkpt lat="42.72331" lon="1.76122">
        <ele>1661.71</ele>
        <time>2017-12-03T13:10:49Z</time>
      </trkpt>
      <trkpt lat="42.72351" lon="1.7612">
        <ele>1660.07</ele>
        <time>2017-12-03T13:11:00Z</time>
      </trkpt>
      <trkpt lat="42.72369" lon="1.76124">
        <ele>1657.95</ele>
        <time>2017-12-03T13:11:15Z</time>
      </trkpt>
      <trkpt lat="42.72387" lon="1.76128">
        <ele>1655.79</ele>
        <time>2017-12-03T13:11:30Z</time>
      </trkpt>
      <trkpt lat="42.72403" lon="1.76137">
        <ele>1653.05</ele>
        <time>2017-12-03T13:11:49Z</time>
      </trkpt>
      <trkpt lat="42.72418" lon="1.76152">
        <ele>1649.56</ele>
        <time>2017-12-03T13:12:12Z</time>
      </trkpt>
      <trkpt lat="42.72431" lon="1.76171">
        <ele>1646.75</ele>
        <time>2017-12-03T13:12:29Z</time>
      </trkpt>
      <trkpt lat="42.72441" lon="1.76192">
        <ele>1640.94</ele>
        <time>2017-12-03T13:12:57Z</time>
      </trkpt>
      <trkpt lat="42.72451" lon="1.76214">
        <ele>1634.52</ele>
        <time>2017-12-03T13:13:18Z</time>
      </trkpt>
      <trkpt lat="42.72468" lon="1.76226">
        <ele>1628.62</ele>
        <time>2017-12-03T13:13:33Z</time>
      </trkpt>
      <trkpt lat="42.72483" lon="1.76239">
        <ele>1621.09</ele>
        <time>2017-12-03T13:13:52Z</time>
      </trkpt>
      <trkpt lat="42.72493" lon="1.7626">
        <ele>1614.73</ele>
        <time>2017-12-03T13:14:09Z</time>
      </trkpt>
      <trkpt lat="42.72504" lon="1.7628">
        <ele>1608.7</ele>
        <time>2017-12-03T13:14:28Z</time>
      </trkpt>
      <trkpt lat="42.72519" lon="1.76295">
        <ele>1601.98</ele>
        <time>2017-12-03T13:14:52Z</time>
      </trkpt>
      <trkpt lat="42.7253" lon="1.76315">
        <ele>1596.9</ele>
        <time>2017-12-03T13:15:10Z</time>
      </trkpt>
      <trkpt lat="42.72535" lon="1.7634">
        <ele>1592.33</ele>
        <time>2017-12-03T13:15:29Z</time>
      </trkpt>
      <trkpt lat="42.7254" lon="1.76364">
        <ele>1588.42</ele>
        <time>2017-12-03T13:15:51Z</time>
      </trkpt>
      <trkpt lat="42.7255" lon="1.76386">
        <ele>1585.77</ele>
        <time>2017-12-03T13:16:12Z</time>
      </trkpt>
      <trkpt lat="42.72558" lon="1.76408">
        <ele>1584.13</ele>
        <time>2017-12-03T13:16:32Z</time>
      </trkpt>
      <trkpt lat="42.72557" lon="1.76433">
        <ele>1582.6</ele>
        <time>2017-12-03T13:16:58Z</time>
      </trkpt>
      <trkpt lat="42.72548" lon="1.76456">
        <ele>1581.48</ele>
        <time>2017-12-03T13:17:18Z</time>
      </trkpt>
      <trkpt lat="42.72546" lon="1.76481">
        <ele>1577.84</ele>
        <time>2017-12-03T13:20:21Z</time>
      </trkpt>
      <trkpt lat="42.72542" lon="1.76506">
        <ele>1577.05</ele>
        <time>2017-12-03T13:20:41Z</time>
      </trkpt>
      <trkpt lat="42.72532" lon="1.76527">
        <ele>1573.44</ele>
        <time>2017-12-03T13:22:30Z</time>
      </trkpt>
      <trkpt lat="42.72525" lon="1.76551">
        <ele>1572.23</ele>
        <time>2017-12-03T13:22:44Z</time>
      </trkpt>
      <trkpt lat="42.72516" lon="1.76574">
        <ele>1571.13</ele>
        <time>2017-12-03T13:22:59Z</time>
      </trkpt>
      <trkpt lat="42.72509" lon="1.76597">
        <ele>1570.21</ele>
        <time>2017-12-03T13:23:12Z</time>
      </trkpt>
      <trkpt lat="42.72509" lon="1.76621">
        <ele>1569.02</ele>
        <time>2017-12-03T13:23:31Z</time>
      </trkpt>
      <trkpt lat="42.72495" lon="1.76637">
        <ele>1568.05</ele>
        <time>2017-12-03T13:23:52Z</time>
      </trkpt>
      <trkpt lat="42.72483" lon="1.76656">
        <ele>1567.58</ele>
        <time>2017-12-03T13:24:05Z</time>
      </trkpt>
      <trkpt lat="42.72476" lon="1.76679">
        <ele>1566.92</ele>
        <time>2017-12-03T13:24:25Z</time>
      </trkpt>
      <trkpt lat="42.72465" lon="1.76699">
        <ele>1561.86</ele>
        <time>2017-12-03T13:30:55Z</time>
      </trkpt>
      <trkpt lat="42.72467" lon="1.76724">
        <ele>1560.64</ele>
        <time>2017-12-03T13:31:10Z</time>
      </trkpt>
      <trkpt lat="42.72471" lon="1.7675">
        <ele>1559.44</ele>
        <time>2017-12-03T13:31:29Z</time>
      </trkpt>
      <trkpt lat="42.72482" lon="1.7677">
        <ele>1558.6</ele>
        <time>2017-12-03T13:31:45Z</time>
      </trkpt>
      <trkpt lat="42.72491" lon="1.76792">
        <ele>1557.58</ele>
        <time>2017-12-03T13:32:01Z</time>
      </trkpt>
      <trkpt lat="42.72504" lon="1.76811">
        <ele>1556.41</ele>
        <time>2017-12-03T13:32:15Z</time>
      </trkpt>
      <trkpt lat="42.72509" lon="1.76836">
        <ele>1554.26</ele>
        <time>2017-12-03T13:32:42Z</time>
      </trkpt>
      <trkpt lat="42.72517" lon="1.76861">
        <ele>1552.22</ele>
        <time>2017-12-03T13:33:01Z</time>
      </trkpt>
      <trkpt lat="42.72527" lon="1.76882">
        <ele>1550.3</ele>
        <time>2017-12-03T13:33:16Z</time>
      </trkpt>
      <trkpt lat="42.72537" lon="1.76903">
        <ele>1546.96</ele>
        <time>2017-12-03T13:33:49Z</time>
      </trkpt>
      <trkpt lat="42.72543" lon="1.76928">
        <ele>1541.49</ele>
        <time>2017-12-03T13:34:19Z</time>
      </trkpt>
      <trkpt lat="42.7255" lon="1.76952">
        <ele>1538.48</ele>
        <time>2017-12-03T13:34:33Z</time>
      </trkpt>
      <trkpt lat="42.72565" lon="1.76968">
        <ele>1534.59</ele>
        <time>2017-12-03T13:34:53Z</time>
      </trkpt>
      <trkpt lat="42.72576" lon="1.76987">
        <ele>1531.56</ele>
        <time>2017-12-03T13:35:08Z</time>
      </trkpt>
      <trkpt lat="42.72585" lon="1.7701">
        <ele>1527.89</ele>
        <time>2017-12-03T13:35:26Z</time>
      </trkpt>
      <trkpt lat="42.72594" lon="1.77033">
        <ele>1525.48</ele>
        <time>2017-12-03T13:35:38Z</time>
      </trkpt>
      <trkpt lat="42.72599" lon="1.77057">
        <ele>1522.18</ele>
        <time>2017-12-03T13:35:54Z</time>
      </trkpt>
      <trkpt lat="42.72604" lon="1.77083">
        <ele>1517.48</ele>
        <time>2017-12-03T13:36:15Z</time>
      </trkpt>
      <trkpt lat="42.72618" lon="1.77099">
        <ele>1512.36</ele>
        <time>2017-12-03T13:36:34Z</time>
      </trkpt>
      <trkpt lat="42.72625" lon="1.77124">
        <ele>1508.6</ele>
        <time>2017-12-03T13:36:46Z</time>
      </trkpt>
      <trkpt lat="42.72633" lon="1.77146">
        <ele>1501.13</ele>
        <time>2017-12-03T13:37:07Z</time>
      </trkpt>
      <trkpt lat="42.72638" lon="1.77169">
        <ele>1495.72</ele>
        <time>2017-12-03T13:37:21Z</time>
      </trkpt>
      <trkpt lat="42.72656" lon="1.7718">
        <ele>1483.78</ele>
        <time>2017-12-03T13:37:53Z</time>
      </trkpt>
      <trkpt lat="42.72668" lon="1.772">
        <ele>1479.54</ele>
        <time>2017-12-03T13:38:04Z</time>
      </trkpt>
      <trkpt lat="42.72673" lon="1.77224">
        <ele>1467.98</ele>
        <time>2017-12-03T13:38:36Z</time>
      </trkpt>
      <trkpt lat="42.72682" lon="1.77247">
        <ele>1459.79</ele>
        <time>2017-12-03T13:39:00Z</time>
      </trkpt>
      <trkpt lat="42.72686" lon="1.77272">
        <ele>1455.48</ele>
        <time>2017-12-03T13:39:13Z</time>
      </trkpt>
      <trkpt lat="42.72699" lon="1.77255">
        <ele>1448.69</ele>
        <time>2017-12-03T13:39:53Z</time>
      </trkpt>
      <trkpt lat="42.72701" lon="1.7728">
        <ele>1421.96</ele>
        <time>2017-12-03T13:45:27Z</time>
      </trkpt>
      <trkpt lat="42.72708" lon="1.77303">
        <ele>1420.37</ele>
        <time>2017-12-03T13:45:43Z</time>
      </trkpt>
      <trkpt lat="42.72715" lon="1.77326">
        <ele>1418.78</ele>
        <time>2017-12-03T13:46:01Z</time>
      </trkpt>
      <trkpt lat="42.72726" lon="1.77346">
        <ele>1417.73</ele>
        <time>2017-12-03T13:46:13Z</time>
      </trkpt>
      <trkpt lat="42.72736" lon="1.77367">
        <ele>1416.5</ele>
        <time>2017-12-03T13:46:29Z</time>
      </trkpt>
      <trkpt lat="42.72746" lon="1.77388">
        <ele>1414.99</ele>
        <time>2017-12-03T13:46:47Z</time>
      </trkpt>
      <trkpt lat="42.72764" lon="1.77395">
        <ele>1413.44</ele>
        <time>2017-12-03T13:47:04Z</time>
      </trkpt>
      <trkpt lat="42.72776" lon="1.77414">
        <ele>1411.32</ele>
        <time>2017-12-03T13:47:26Z</time>
      </trkpt>
      <trkpt lat="42.72794" lon="1.77417">
        <ele>1409.63</ele>
        <time>2017-12-03T13:47:45Z</time>
      </trkpt>
      <trkpt lat="42.72814" lon="1.77421">
        <ele>1407.66</ele>
        <time>2017-12-03T13:48:01Z</time>
      </trkpt>
      <trkpt lat="42.72834" lon="1.77428">
        <ele>1405.67</ele>
        <time>2017-12-03T13:48:10Z</time>
      </trkpt>
      <trkpt lat="42.72849" lon="1.77444">
        <ele>1400.71</ele>
        <time>2017-12-03T13:48:30Z</time>
      </trkpt>
      <trkpt lat="42.72864" lon="1.77463">
        <ele>1397.26</ele>
        <time>2017-12-03T13:48:43Z</time>
      </trkpt>
      <trkpt lat="42.72882" lon="1.77467">
        <ele>1394.02</ele>
        <time>2017-12-03T13:48:54Z</time>
      </trkpt>
      <trkpt lat="42.72896" lon="1.77484">
        <ele>1387.74</ele>
        <time>2017-12-03T13:49:15Z</time>
      </trkpt>
      <trkpt lat="42.72915" lon="1.77492">
        <ele>1381.88</ele>
        <time>2017-12-03T13:49:35Z</time>
      </trkpt>
      <trkpt lat="42.72924" lon="1.77514">
        <ele>1378.38</ele>
        <time>2017-12-03T13:49:49Z</time>
      </trkpt>
      <trkpt lat="42.72932" lon="1.77536">
        <ele>1374.22</ele>
        <time>2017-12-03T13:50:07Z</time>
      </trkpt>
      <trkpt lat="42.72949" lon="1.77555">
        <ele>1370.35</ele>
        <time>2017-12-03T13:50:25Z</time>
      </trkpt>
      <trkpt lat="42.7296" lon="1.77574">
        <ele>1367.48</ele>
        <time>2017-12-03T13:50:38Z</time>
      </trkpt>
      <trkpt lat="42.72973" lon="1.77593">
        <ele>1362.26</ele>
        <time>2017-12-03T13:51:00Z</time>
      </trkpt>
      <trkpt lat="42.72979" lon="1.77617">
        <ele>1358.43</ele>
        <time>2017-12-03T13:51:17Z</time>
      </trkpt>
      <trkpt lat="42.72995" lon="1.7763">
        <ele>1356.17</ele>
        <time>2017-12-03T13:51:27Z</time>
      </trkpt>
      <trkpt lat="42.73015" lon="1.77631">
        <ele>1354.09</ele>
        <time>2017-12-03T13:51:36Z</time>
      </trkpt>
      <trkpt lat="42.73025" lon="1.77653">
        <ele>1348.28</ele>
        <time>2017-12-03T13:52:01Z</time>
      </trkpt>
      <trkpt lat="42.73041" lon="1.77666">
        <ele>1345.48</ele>
        <time>2017-12-03T13:52:17Z</time>
      </trkpt>
      <trkpt lat="42.73059" lon="1.77676">
        <ele>1341.68</ele>
        <time>2017-12-03T13:52:38Z</time>
      </trkpt>
      <trkpt lat="42.73075" lon="1.77689">
        <ele>1338.56</ele>
        <time>2017-12-03T13:52:53Z</time>
      </trkpt>
      <trkpt lat="42.73088" lon="1.77707">
        <ele>1334.86</ele>
        <time>2017-12-03T13:53:10Z</time>
      </trkpt>
      <trkpt lat="42.73106" lon="1.77716">
        <ele>1329.04</ele>
        <time>2017-12-03T13:53:34Z</time>
      </trkpt>
      <trkpt lat="42.73122" lon="1.77707">
        <ele>1326.78</ele>
        <time>2017-12-03T13:53:44Z</time>
      </trkpt>
      <trkpt lat="42.73137" lon="1.77692">
        <ele>1278.33</ele>
        <time>2017-12-03T14:04:46Z</time>
      </trkpt>
      <trkpt lat="42.73155" lon="1.77692">
        <ele>1278</ele>
        <time>2017-12-03T14:05:19Z</time>
      </trkpt>
      <trkpt lat="42.73169" lon="1.77708">
        <ele>1277.88</ele>
        <time>2017-12-03T14:05:35Z</time>
      </trkpt>
      <trkpt lat="42.73188" lon="1.77714">
        <ele>1277.75</ele>
        <time>2017-12-03T14:05:57Z</time>
      </trkpt>
      <trkpt lat="42.73205" lon="1.77725">
        <ele>1277.62</ele>
        <time>2017-12-03T14:06:17Z</time>
      </trkpt>
      <trkpt lat="42.73223" lon="1.7772">
        <ele>1277.53</ele>
        <time>2017-12-03T14:06:28Z</time>
      </trkpt>
      <trkpt lat="42.7324" lon="1.77734">
        <ele>1277.44</ele>
        <time>2017-12-03T14:06:38Z</time>
      </trkpt>
      <trkpt lat="42.73259" lon="1.77736">
        <ele>1277.26</ele>
        <time>2017-12-03T14:06:55Z</time>
      </trkpt>
      <trkpt lat="42.7328" lon="1.77745">
        <ele>1277.11</ele>
        <time>2017-12-03T14:07:10Z</time>
      </trkpt>
      <trkpt lat="42.73293" lon="1.77762">
        <ele>1277.03</ele>
        <time>2017-12-03T14:07:18Z</time>
      </trkpt>
      <trkpt lat="42.73303" lon="1.77784">
        <ele>1276.82</ele>
        <time>2017-12-03T14:07:38Z</time>
      </trkpt>
      <trkpt lat="42.73319" lon="1.77797">
        <ele>1276.69</ele>
        <time>2017-12-03T14:07:51Z</time>
      </trkpt>
      <trkpt lat="42.73338" lon="1.77801">
        <ele>1276.51</ele>
        <time>2017-12-03T14:08:07Z</time>
      </trkpt>
      <trkpt lat="42.73356" lon="1.77798">
        <ele>1276.38</ele>
        <time>2017-12-03T14:08:18Z</time>
      </trkpt>
      <trkpt lat="42.73374" lon="1.77788">
        <ele>1276.19</ele>
        <time>2017-12-03T14:08:35Z</time>
      </trkpt>
      <trkpt lat="42.7339" lon="1.77778">
        <ele>1275.96</ele>
        <time>2017-12-03T14:08:49Z</time>
      </trkpt>
      <trkpt lat="42.73408" lon="1.77768">
        <ele>1275.38</ele>
        <time>2017-12-03T14:09:19Z</time>
      </trkpt>
      <trkpt lat="42.73423" lon="1.77754">
        <ele>1274.66</ele>
        <time>2017-12-03T14:09:48Z</time>
      </trkpt>
      <trkpt lat="42.73434" lon="1.77734">
        <ele>1273.59</ele>
        <time>2017-12-03T14:10:10Z</time>
      </trkpt>
      <trkpt lat="42.73436" lon="1.77709">
        <ele>1272.68</ele>
        <time>2017-12-03T14:10:20Z</time>
      </trkpt>
      <trkpt lat="42.7345" lon="1.7769">
        <ele>1271.31</ele>
        <time>2017-12-03T14:10:33Z</time>
      </trkpt>
      <trkpt lat="42.73465" lon="1.77676">
        <ele>1269.69</ele>
        <time>2017-12-03T14:10:47Z</time>
      </trkpt>
      <trkpt lat="42.73476" lon="1.77657">
        <ele>1266.87</ele>
        <time>2017-12-03T14:11:07Z</time>
      </trkpt>
      <trkpt lat="42.73494" lon="1.77649">
        <ele>1255.88</ele>
        <time>2017-12-03T14:11:50Z</time>
      </trkpt>
      <trkpt lat="42.7351" lon="1.77635">
        <ele>1250.4</ele>
        <time>2017-12-03T14:12:08Z</time>
      </trkpt>
      <trkpt lat="42.73526" lon="1.77621">
        <ele>1245.93</ele>
        <time>2017-12-03T14:12:26Z</time>
      </trkpt>
      <trkpt lat="42.73542" lon="1.77608">
        <ele>1242.55</ele>
        <time>2017-12-03T14:12:43Z</time>
      </trkpt>
      <trkpt lat="42.73555" lon="1.7759">
        <ele>1240.04</ele>
        <time>2017-12-03T14:12:57Z</time>
      </trkpt>
      <trkpt lat="42.7357" lon="1.77574">
        <ele>1236.23</ele>
        <time>2017-12-03T14:13:16Z</time>
      </trkpt>
      <trkpt lat="42.73578" lon="1.77596">
        <ele>1226.89</ele>
        <time>2017-12-03T14:13:47Z</time>
      </trkpt>
      <trkpt lat="42.73571" lon="1.77619">
        <ele>1222.14</ele>
        <time>2017-12-03T14:14:00Z</time>
      </trkpt>
      <trkpt lat="42.73564" lon="1.77644">
        <ele>1214.33</ele>
        <time>2017-12-03T14:14:15Z</time>
      </trkpt>
      <trkpt lat="42.73564" lon="1.77669">
        <ele>1203.14</ele>
        <time>2017-12-03T14:14:35Z</time>
      </trkpt>
      <trkpt lat="42.73563" lon="1.77695">
        <ele>1191.95</ele>
        <time>2017-12-03T14:14:58Z</time>
      </trkpt>
      <trkpt lat="42.73577" lon="1.77676">
        <ele>1182.16</ele>
        <time>2017-12-03T14:15:27Z</time>
      </trkpt>
      <trkpt lat="42.73594" lon="1.77666">
        <ele>1176.45</ele>
        <time>2017-12-03T14:15:51Z</time>
      </trkpt>
      <trkpt lat="42.73612" lon="1.7766">
        <ele>1167.8</ele>
        <time>2017-12-03T14:16:34Z</time>
      </trkpt>
      <trkpt lat="42.73631" lon="1.77653">
        <ele>1165.54</ele>
        <time>2017-12-03T14:16:45Z</time>
      </trkpt>
      <trkpt lat="42.73638" lon="1.77679">
        <ele>1157</ele>
        <time>2017-12-03T14:17:23Z</time>
      </trkpt>
      <trkpt lat="42.73634" lon="1.77703">
        <ele>1152.56</ele>
        <time>2017-12-03T14:17:38Z</time>
      </trkpt>
      <trkpt lat="42.7363" lon="1.77727">
        <ele>1145.13</ele>
        <time>2017-12-03T14:17:59Z</time>
      </trkpt>
      <trkpt lat="42.7362" lon="1.77749">
        <ele>1136.45</ele>
        <time>2017-12-03T14:18:21Z</time>
      </trkpt>
      <trkpt lat="42.73637" lon="1.77736">
        <ele>1127.17</ele>
        <time>2017-12-03T14:18:51Z</time>
      </trkpt>
      <trkpt lat="42.73637" lon="1.77761">
        <ele>1121.39</ele>
        <time>2017-12-03T14:19:09Z</time>
      </trkpt>
      <trkpt lat="42.73645" lon="1.77785">
        <ele>1111.38</ele>
        <time>2017-12-03T14:19:46Z</time>
      </trkpt>
      <trkpt lat="42.73657" lon="1.77803">
        <ele>1101.07</ele>
        <time>2017-12-03T14:20:31Z</time>
      </trkpt>
      <trkpt lat="42.73656" lon="1.77828">
        <ele>1080.99</ele>
        <time>2017-12-03T14:22:49Z</time>
      </trkpt>
      <trkpt lat="42.73643" lon="1.77845">
        <ele>1072.97</ele>
        <time>2017-12-03T14:23:53Z</time>
      </trkpt>
      <trkpt lat="42.7366" lon="1.77829">
        <ele>1067.33</ele>
        <time>2017-12-03T14:24:41Z</time>
      </trkpt>
      <trkpt lat="42.73666" lon="1.77852">
        <ele>1053.47</ele>
        <time>2017-12-03T14:29:42Z</time>
      </trkpt>
      <trkpt lat="42.73653" lon="1.77871">
        <ele>1052.68</ele>
        <time>2017-12-03T14:29:57Z</time>
      </trkpt>
      <trkpt lat="42.73637" lon="1.77855">
        <ele>1051.25</ele>
        <time>2017-12-03T14:30:28Z</time>
      </trkpt>
      <trkpt lat="42.73641" lon="1.7788">
        <ele>1050.2</ele>
        <time>2017-12-03T14:30:54Z</time>
      </trkpt>
      <trkpt lat="42.73632" lon="1.77902">
        <ele>1050</ele>
        <time>2017-12-03T14:30:59Z</time>
      </trkpt>
      <trkpt lat="42.73632" lon="1.77927">
        <ele>1049.31</ele>
        <time>2017-12-03T14:31:17Z</time>
      </trkpt>
      <trkpt lat="42.73621" lon="1.7795">
        <ele>1048.71</ele>
        <time>2017-12-03T14:31:34Z</time>
      </trkpt>
      <trkpt lat="42.73611" lon="1.77971">
        <ele>1047.29</ele>
        <time>2017-12-03T14:32:14Z</time>
      </trkpt>
      <trkpt lat="42.73622" lon="1.77991">
        <ele>1045.49</ele>
        <time>2017-12-03T14:32:52Z</time>
      </trkpt>
      <trkpt lat="42.73627" lon="1.78015">
        <ele>1041.14</ele>
        <time>2017-12-03T14:33:32Z</time>
      </trkpt>
      <trkpt lat="42.73627" lon="1.7804">
        <ele>1032.76</ele>
        <time>2017-12-03T14:34:15Z</time>
      </trkpt>
      <trkpt lat="42.73622" lon="1.78064">
        <ele>1027.51</ele>
        <time>2017-12-03T14:34:38Z</time>
      </trkpt>
      <trkpt lat="42.73616" lon="1.78087">
        <ele>1023.11</ele>
        <time>2017-12-03T14:34:54Z</time>
      </trkpt>
      <trkpt lat="42.73613" lon="1.78112">
        <ele>1018.59</ele>
        <time>2017-12-03T14:35:08Z</time>
      </trkpt>
      <trkpt lat="42.73613" lon="1.78137">
        <ele>1009.67</ele>
        <time>2017-12-03T14:35:33Z</time>
      </trkpt>
      <trkpt lat="42.73606" lon="1.78161">
        <ele>1001.11</ele>
        <time>2017-12-03T14:36:03Z</time>
      </trkpt>
      <trkpt lat="42.7361" lon="1.78185">
        <ele>992.1</ele>
        <time>2017-12-03T14:36:40Z</time>
      </trkpt>
      <trkpt lat="42.73627" lon="1.78194">
        <ele>980.05</ele>
        <time>2017-12-03T14:37:37Z</time>
      </trkpt>
      <trkpt lat="42.7364" lon="1.78173">
        <ele>971.7</ele>
        <time>2017-12-03T14:38:12Z</time>
      </trkpt>
      <trkpt lat="42.73643" lon="1.78197">
        <ele>965.46</ele>
        <time>2017-12-03T14:38:36Z</time>
      </trkpt>
      <trkpt lat="42.73659" lon="1.78209">
        <ele>950.5</ele>
        <time>2017-12-03T14:39:26Z</time>
      </trkpt>
      <trkpt lat="42.73662" lon="1.78233">
        <ele>937.46</ele>
        <time>2017-12-03T14:40:03Z</time>
      </trkpt>
      <trkpt lat="42.73676" lon="1.78251">
        <ele>919.29</ele>
        <time>2017-12-03T14:41:00Z</time>
      </trkpt>
      <trkpt lat="42.73675" lon="1.78277">
        <ele>913.9</ele>
        <time>2017-12-03T14:41:17Z</time>
      </trkpt>
      <trkpt lat="42.73693" lon="1.78283">
        <ele>895.93</ele>
        <time>2017-12-03T14:42:30Z</time>
      </trkpt>
      <trkpt lat="42.73706" lon="1.783">
        <ele>888.22</ele>
        <time>2017-12-03T14:43:05Z</time>
      </trkpt>
      <trkpt lat="42.73719" lon="1.78317">
        <ele>881.4</ele>
        <time>2017-12-03T14:43:41Z</time>
      </trkpt>
      <trkpt lat="42.73735" lon="1.78331">
        <ele>874.37</ele>
        <time>2017-12-03T14:44:22Z</time>
      </trkpt>
      <trkpt lat="42.73748" lon="1.78352">
        <ele>868.7</ele>
        <time>2017-12-03T14:44:55Z</time>
      </trkpt>
      <trkpt lat="42.73759" lon="1.78375">
        <ele>866.41</ele>
        <time>2017-12-03T14:45:05Z</time>
      </trkpt>
      <trkpt lat="42.73774" lon="1.7836">
        <ele>862.17</ele>
        <time>2017-12-03T14:45:23Z</time>
      </trkpt>
      <trkpt lat="42.73792" lon="1.78353">
        <ele>858.41</ele>
        <time>2017-12-03T14:45:38Z</time>
      </trkpt>
      <trkpt lat="42.73805" lon="1.78336">
        <ele>855.44</ele>
        <time>2017-12-03T14:45:50Z</time>
      </trkpt>
      <trkpt lat="42.7382" lon="1.78319">
        <ele>850.31</ele>
        <time>2017-12-03T14:46:14Z</time>
      </trkpt>
      <trkpt lat="42.73828" lon="1.78342">
        <ele>846.04</ele>
        <time>2017-12-03T14:46:35Z</time>
      </trkpt>
      <trkpt lat="42.73825" lon="1.78367">
        <ele>842.57</ele>
        <time>2017-12-03T14:46:49Z</time>
      </trkpt>
      <trkpt lat="42.73814" lon="1.78389">
        <ele>837.45</ele>
        <time>2017-12-03T14:47:13Z</time>
      </trkpt>
      <trkpt lat="42.73803" lon="1.78412">
        <ele>834.57</ele>
        <time>2017-12-03T14:47:31Z</time>
      </trkpt>
      <trkpt lat="42.73789" lon="1.78429">
        <ele>832.07</ele>
        <time>2017-12-03T14:47:42Z</time>
      </trkpt>
      <trkpt lat="42.7377" lon="1.78438">
        <ele>829.67</ele>
        <time>2017-12-03T14:47:55Z</time>
      </trkpt>
      <trkpt lat="42.73762" lon="1.78461">
        <ele>825.84</ele>
        <time>2017-12-03T14:48:17Z</time>
      </trkpt>
      <trkpt lat="42.73755" lon="1.78484">
        <ele>821.13</ele>
        <time>2017-12-03T14:48:44Z</time>
      </trkpt>
      <trkpt lat="42.73744" lon="1.7851">
        <ele>819.02</ele>
        <time>2017-12-03T14:48:57Z</time>
      </trkpt>
      <trkpt lat="42.73727" lon="1.7853">
        <ele>818.21</ele>
        <time>2017-12-03T14:49:02Z</time>
      </trkpt>
      <trkpt lat="42.7372" lon="1.78553">
        <ele>812.4</ele>
        <time>2017-12-03T14:49:35Z</time>
      </trkpt>
      <trkpt lat="42.73711" lon="1.78576">
        <ele>807.73</ele>
        <time>2017-12-03T14:50:04Z</time>
      </trkpt>
      <trkpt lat="42.73704" lon="1.78599">
        <ele>805.59</ele>
        <time>2017-12-03T14:50:17Z</time>
      </trkpt>
      <trkpt lat="42.73685" lon="1.78611">
        <ele>803.24</ele>
        <time>2017-12-03T14:50:31Z</time>
      </trkpt>
      <trkpt lat="42.73672" lon="1.78629">
        <ele>801.05</ele>
        <time>2017-12-03T14:50:48Z</time>
      </trkpt>
      <trkpt lat="42.73653" lon="1.78625">
        <ele>794.7</ele>
        <time>2017-12-03T14:51:36Z</time>
      </trkpt>
      <trkpt lat="42.7365" lon="1.78652">
        <ele>785.47</ele>
        <time>2017-12-03T14:52:22Z</time>
      </trkpt>
      <trkpt lat="42.7364" lon="1.78677">
        <ele>777.57</ele>
        <time>2017-12-03T14:52:58Z</time>
      </trkpt>
      <trkpt lat="42.73629" lon="1.78696">
        <ele>775.53</ele>
        <time>2017-12-03T14:53:09Z</time>
      </trkpt>
      <trkpt lat="42.7362" lon="1.78719">
        <ele>773.21</ele>
        <time>2017-12-03T14:53:25Z</time>
      </trkpt>
      <trkpt lat="42.73637" lon="1.78709">
        <ele>770.59</ele>
        <time>2017-12-03T14:53:45Z</time>
      </trkpt>
      <trkpt lat="42.73657" lon="1.78712">
        <ele>767.86</ele>
        <time>2017-12-03T14:54:11Z</time>
      </trkpt>
      <trkpt lat="42.73649" lon="1.78736">
        <ele>766.26</ele>
        <time>2017-12-03T14:54:30Z</time>
      </trkpt>
      <trkpt lat="42.73642" lon="1.78761">
        <ele>765.25</ele>
        <time>2017-12-03T14:54:42Z</time>
      </trkpt>
      <trkpt lat="42.7363" lon="1.78781">
        <ele>764.15</ele>
        <time>2017-12-03T14:54:54Z</time>
      </trkpt>
      <trkpt lat="42.73611" lon="1.78781">
        <ele>762.05</ele>
        <time>2017-12-03T14:55:14Z</time>
      </trkpt>
      <trkpt lat="42.73591" lon="1.78789">
        <ele>760.84</ele>
        <time>2017-12-03T14:55:27Z</time>
      </trkpt>
      <trkpt lat="42.73578" lon="1.78805">
        <ele>759.24</ele>
        <time>2017-12-03T14:55:45Z</time>
      </trkpt>
      <trkpt lat="42.73567" lon="1.78827">
        <ele>757.31</ele>
        <time>2017-12-03T14:56:07Z</time>
      </trkpt>
      <trkpt lat="42.73559" lon="1.78851">
        <ele>755.67</ele>
        <time>2017-12-03T14:56:24Z</time>
      </trkpt>
      <trkpt lat="42.73548" lon="1.78873">
        <ele>753.96</ele>
        <time>2017-12-03T14:56:40Z</time>
      </trkpt>
      <trkpt lat="42.73532" lon="1.78886">
        <ele>751.79</ele>
        <time>2017-12-03T14:56:55Z</time>
      </trkpt>
      <trkpt lat="42.73522" lon="1.78907">
        <ele>749.35</ele>
        <time>2017-12-03T14:57:12Z</time>
      </trkpt>
      <trkpt lat="42.73517" lon="1.78931">
        <ele>746.68</ele>
        <time>2017-12-03T14:57:31Z</time>
      </trkpt>
      <trkpt lat="42.73506" lon="1.78953">
        <ele>744.35</ele>
        <time>2017-12-03T14:57:48Z</time>
      </trkpt>
      <trkpt lat="42.73496" lon="1.78973">
        <ele>741.69</ele>
        <time>2017-12-03T14:58:08Z</time>
      </trkpt>
      <trkpt lat="42.73491" lon="1.78998">
        <ele>739.33</ele>
        <time>2017-12-03T14:58:28Z</time>
      </trkpt>
      <trkpt lat="42.73483" lon="1.79021">
        <ele>737.98</ele>
        <time>2017-12-03T14:58:40Z</time>
      </trkpt>
      <trkpt lat="42.73474" lon="1.79043">
        <ele>736.35</ele>
        <time>2017-12-03T14:58:52Z</time>
      </trkpt>
      <trkpt lat="42.73461" lon="1.79061">
        <ele>733.37</ele>
        <time>2017-12-03T14:59:13Z</time>
      </trkpt>
      <trkpt lat="42.7345" lon="1.79081">
        <ele>731.72</ele>
        <time>2017-12-03T14:59:26Z</time>
      </trkpt>
      <trkpt lat="42.73439" lon="1.79103">
        <ele>729.91</ele>
        <time>2017-12-03T14:59:41Z</time>
      </trkpt>
      <trkpt lat="42.73422" lon="1.79113">
        <ele>727.38</ele>
        <time>2017-12-03T15:00:06Z</time>
      </trkpt>
      <trkpt lat="42.73405" lon="1.79124">
        <ele>725.83</ele>
        <time>2017-12-03T15:00:25Z</time>
      </trkpt>
      <trkpt lat="42.73412" lon="1.791">
        <ele>722.65</ele>
        <time>2017-12-03T15:00:57Z</time>
      </trkpt>
      <trkpt lat="42.73429" lon="1.79106">
        <ele>721.47</ele>
        <time>2017-12-03T15:01:07Z</time>
      </trkpt>
      <trkpt lat="42.73449" lon="1.79107">
        <ele>719.3</ele>
        <time>2017-12-03T15:01:23Z</time>
      </trkpt>
      <trkpt lat="42.73467" lon="1.7911">
        <ele>715.47</ele>
        <time>2017-12-03T15:01:47Z</time>
      </trkpt>
      <trkpt lat="42.73486" lon="1.79115">
        <ele>713.76</ele>
        <time>2017-12-03T15:01:57Z</time>
      </trkpt>
      <trkpt lat="42.73501" lon="1.79132">
        <ele>709.44</ele>
        <time>2017-12-03T15:02:15Z</time>
      </trkpt>
      <trkpt lat="42.7351" lon="1.79156">
        <ele>687.17</ele>
        <time>2017-12-03T15:02:45Z</time>
      </trkpt>
      <trkpt lat="42.73528" lon="1.79162">
        <ele>686.44</ele>
        <time>2017-12-03T15:02:49Z</time>
      </trkpt>
      <trkpt lat="42.73536" lon="1.79139">
        <ele>684.31</ele>
        <time>2017-12-03T15:03:02Z</time>
      </trkpt>
      <trkpt lat="42.73548" lon="1.79118">
        <ele>682.25</ele>
        <time>2017-12-03T15:03:20Z</time>
      </trkpt>
      <trkpt lat="42.73557" lon="1.79097">
        <ele>681.01</ele>
        <time>2017-12-03T15:03:36Z</time>
      </trkpt>
      <trkpt lat="42.73571" lon="1.7908">
        <ele>680.35</ele>
        <time>2017-12-03T15:03:50Z</time>
      </trkpt>
      <trkpt lat="42.73579" lon="1.79057">
        <ele>679.64</ele>
        <time>2017-12-03T15:04:13Z</time>
      </trkpt>
      <trkpt lat="42.73594" lon="1.79042">
        <ele>679.27</ele>
        <time>2017-12-03T15:04:29Z</time>
      </trkpt>
      <trkpt lat="42.73609" lon="1.79027">
        <ele>678.75</ele>
        <time>2017-12-03T15:04:58Z</time>
      </trkpt>
      <trkpt lat="42.73625" lon="1.79013">
        <ele>678.44</ele>
        <time>2017-12-03T15:05:16Z</time>
      </trkpt>
      <trkpt lat="42.73642" lon="1.79026">
        <ele>678.09</ele>
        <time>2017-12-03T15:05:35Z</time>
      </trkpt>
      <trkpt lat="42.7366" lon="1.79033">
        <ele>676.47</ele>
        <time>2017-12-03T15:06:58Z</time>
      </trkpt>
    </trkseg>
  </trk>
</gpx>